Sniezka, Poland
Current Conditions -  °F | °C
As of 7:00 AM on Thursday 27 Nov 2014 (Local Time) from LKPD Reporting Station
Overcast Overcast  
Wind Chill: 28°   Ceiling: 3100
Heat Index: 36°   Visibility: 6mi
Dew Point: 30°   Wind: 12mph
Humidity: 81%   Direction: 100°E
Pressure: 30.06"   Gusts: NA
Location:  50.77°N, 15.75°E
Report Text: LKPD 270500Z 10010KT 9999 OVC031 02/M01 Q1018 NOSIG
Loading
Personal Weather Stations






























Interactive Weather Map New forecast layout! Learn more

10-Day Weather Forecast

Advertisements
Track Severe Weather on mobile